Aérodrome :
LOGIN :

S'inscrire | Disclaimer

   EN    FR    IT 

 










Légende :    VFR   VFR Marginal   IFR   IFR Intensif   IFR Très Intensif
Visi : 
Plafond : 
>= 8 km
>= 3000ft
5 à 8 km
1000 à 3000 ft
1500m à 5 km
500 à 1000 ft
800 à 1500m
200 à 500 ft
< 800m
< 200 ft
Symboles :   Orages  Brouillard  Fortes neiges  Fortes précipitations  Vent > 20 kt
SIGMETs :   Divers  Orages  Givrage  Turbulence  Onde Orograph.  Cendres Volcan.







- Altitude de l'aérodrome : 1585 ft
- Code IATA : SIR


LSGS - Sion

DERNIER METAR :
  • 210920Z VRB02KT 9999 FEW100 BKN200 21/11 Q1018

METARs EXPIRÉS :
  • 210850Z 14003KT 100V170 9999 FEW100 BKN200 21/11 Q1018
  • 210820Z VRB02KT 9999 FEW100 BKN200 20/11 Q1018
  • 210750Z 08004KT 050V110 9999 FEW100 SCT200 18/11 Q1018
  • 210720Z 07005KT 040V100 9999 FEW120 18/11 Q1018
  • 210650Z VRB02KT 9999 FEW120 17/11 Q1018
  • 210620Z VRB02KT 9999 FEW120 16/11 Q1018

TAF TAF LSGS
Valide du 21 à 09h jusqu'au 21 à 18h UTC


210825Z 2109/2118 08004KT 9999 FEW080 SCT200
BECMG 2113/2115 25010KT BKN060
PROB30
TEMPO 2115/2118 SHRA
Pas de NOTAMs connus pour ce terrain.



MET'MAP, la Météo Aéronautique d'un coup d'oeil ! - Copyright ORBIFLY Décembre 2007 - Disclaimer

ORBIFLY MET'MAP TEAM :

Programmation & Développement : Alexandra Zaïnal
Conception & Développement : Baudouin d'Aumeries
Co-Programmation & Développement : Marc-Olivier Méhu
Soutien technique & logistique : Manuel Goepfert

Contact : metmap@orbifly.com




SOURCES & CREDITS :

   NOAA